Time;durP1;ratioP1;P1;durP2;ratioP2;P2;SDS_P1;SDS_P2;PMS_P1;PMS_P2;Temp;Humidity;BMP_temperature;BMP_pressure;BME280_temperature;BME280_humidity;BME280_pressure;Samples;Min_cycle;Max_cycle;Signal;HPM_P1;HPM_P2
2021/04/21 00:01:00;;;;;;;64.65;41.13;;;8.00;99.90;;;;;;5073969;28;20098;-72
2021/04/21 00:03:25;;;;;;;63.00;40.60;;;8.00;99.90;;;;;;5074355;28;20044;-72
2021/04/21 00:05:52;;;;;;;66.60;41.20;;;8.00;99.90;;;;;;5073621;28;20056;-72
2021/04/21 00:08:19;;;;;;;66.40;40.30;;;7.90;99.90;;;;;;5074552;28;20444;-72
2021/04/21 00:10:46;;;;;;;72.72;43.17;;;7.90;99.90;;;;;;5074214;28;20020;-72
2021/04/21 00:13:12;;;;;;;73.53;43.63;;;7.80;99.90;;;;;;5072734;28;20029;-72
2021/04/21 00:15:38;;;;;;;73.70;43.35;;;7.80;99.90;;;;;;5074437;28;20043;-72
2021/04/21 00:18:06;;;;;;;68.00;43.50;;;7.70;99.90;;;;;;5073001;28;20024;-72
2021/04/21 00:20:33;;;;;;;72.22;44.90;;;7.70;99.90;;;;;;5074023;28;20031;-72
2021/04/21 00:23:03;;;;;;;71.28;44.33;;;7.60;99.90;;;;;;5074084;28;20094;-72
2021/04/21 00:25:32;;;;;;;70.00;43.33;;;7.50;99.90;;;;;;5074033;28;20017;-72
2021/04/21 00:27:59;;;;;;;78.93;45.30;;;7.50;99.90;;;;;;5074006;28;20025;-72
2021/04/21 00:30:26;;;;;;;73.30;44.10;;;7.30;99.90;;;;;;5072520;28;20103;-72
2021/04/21 00:32:54;;;;;;;68.78;42.45;;;7.30;99.90;;;;;;5073216;28;20025;-72
2021/04/21 00:35:25;;;;;;;67.35;42.65;;;7.20;99.90;;;;;;5073662;28;20074;-72
2021/04/21 00:37:56;;;;;;;72.10;42.75;;;7.20;99.90;;;;;;5073991;28;20082;-72
2021/04/21 00:40:45;;;;;;;69.97;42.83;;;7.20;99.90;;;;;;5073824;28;20028;-72
2021/04/21 00:45:54;;;;;;;75.90;42.28;;;7.20;99.90;;;;;;5112064;27;20310;-72
2021/04/21 00:48:45;;;;;;;71.47;42.53;;;7.10;99.90;;;;;;5111642;28;20060;-72
2021/04/21 00:51:15;;;;;;;73.78;43.53;;;7.00;99.90;;;;;;5111549;28;20098;-72
2021/04/21 00:53:44;;;;;;;71.07;42.63;;;7.00;99.90;;;;;;5111805;28;20102;-72
2021/04/21 00:56:31;;;;;;;69.60;41.67;;;7.10;99.90;;;;;;5111487;28;20111;-72
2021/04/21 00:59:06;;;;;;;66.25;42.00;;;7.10;99.90;;;;;;5111744;28;20114;-72
2021/04/21 01:01:33;;;;;;;72.53;41.15;;;7.00;99.90;;;;;;5111380;28;20027;-72
2021/04/21 01:03:58;;;;;;;69.30;40.92;;;7.00;99.90;;;;;;5111547;28;20015;-72
2021/04/21 01:06:32;;;;;;;66.40;40.10;;;6.90;99.90;;;;;;5111284;28;20031;-72
2021/04/21 01:09:00;;;;;;;67.63;40.47;;;6.90;99.90;;;;;;5111236;28;20027;-72
2021/04/21 01:11:34;;;;;;;56.70;37.60;;;6.80;99.90;;;;;;5111223;28;20020;-72
2021/04/21 01:14:07;;;;;;;60.85;36.58;;;6.80;99.90;;;;;;5110847;28;20027;-72
2021/04/21 01:16:35;;;;;;;56.13;35.97;;;6.80;99.90;;;;;;5109497;28;20434;-72
2021/04/21 01:19:09;;;;;;;56.63;35.78;;;6.70;99.90;;;;;;5111045;28;20032;-72
2021/04/21 01:21:47;;;;;;;58.50;36.45;;;6.70;99.90;;;;;;5110773;28;20035;-72
2021/04/21 01:24:20;;;;;;;60.25;36.50;;;6.60;99.90;;;;;;5110586;28;20028;-72
2021/04/21 01:26:55;;;;;;;;;;;6.70;99.90;;;;;;5110744;28;20020;-72
2021/04/21 01:29:32;;;;;;;56.88;33.05;;;6.90;99.90;;;;;;5110158;28;20372;-72
2021/04/21 01:32:05;;;;;;;59.28;34.65;;;6.80;99.90;;;;;;5110793;28;20480;-72
2021/04/21 01:34:33;;;;;;;53.97;33.33;;;6.90;99.90;;;;;;5111083;28;20051;-72
2021/04/21 01:37:03;;;;;;;56.72;34.72;;;6.90;99.90;;;;;;5110728;28;20020;-72
2021/04/21 01:39:31;;;;;;;52.45;33.97;;;6.80;99.90;;;;;;5110965;28;20106;-72
2021/04/21 01:41:58;;;;;;;59.65;37.00;;;6.70;99.90;;;;;;5109747;28;20024;-72
2021/04/21 01:44:29;;;;;;;62.25;36.58;;;6.60;99.90;;;;;;5110171;28;20043;-72
2021/04/21 01:47:02;;;;;;;52.70;32.42;;;6.50;99.90;;;;;;5110814;28;20012;-71
2021/04/21 01:52:42;;;;;;;54.13;32.42;;;7.00;99.90;;;;;;5091825;28;20348;-72
2021/04/21 01:55:39;;;;;;;49.00;30.88;;;7.40;99.90;;;;;;5090905;28;20078;-72
2021/04/21 01:58:31;;;;;;;47.50;30.65;;;7.30;99.90;;;;;;5089993;28;20066;-71
2021/04/21 02:01:24;;;;;;;47.08;30.85;;;7.50;99.90;;;;;;5091098;28;20032;-72
2021/04/21 02:03:58;;;;;;;45.85;30.42;;;7.30;99.90;;;;;;5090825;28;20020;-72
2021/04/21 02:06:50;;;;;;;45.70;30.85;;;7.10;99.90;;;;;;5091083;28;20189;-72
2021/04/21 02:09:56;;;;;;;50.70;31.02;;;6.90;99.90;;;;;;5091317;28;20017;-72
2021/04/21 02:15:49;;;;;;;51.40;31.13;;;6.60;99.90;;;;;;5092104;27;20356;-72
2021/04/21 02:18:34;;;;;;;;;;;6.50;99.90;;;;;;5091354;28;20133;-72
2021/04/21 02:21:15;;;;;;;53.28;31.33;;;6.40;99.90;;;;;;5090956;28;20288;-72
2021/04/21 02:23:53;;;;;;;50.92;32.05;;;6.20;99.90;;;;;;5089616;28;20025;-72
2021/04/21 02:26:44;;;;;;;52.03;32.92;;;6.10;99.90;;;;;;5091093;28;20016;-72
2021/04/21 02:29:20;;;;;;;54.10;33.90;;;6.00;99.90;;;;;;5090753;28;20052;-72
2021/04/21 02:32:09;;;;;;;51.33;32.58;;;5.90;99.90;;;;;;5091031;28;20440;-73
2021/04/21 02:35:14;;;;;;;55.58;33.47;;;5.90;99.90;;;;;;5090887;28;20028;-72
2021/04/21 02:38:20;;;;;;;61.33;34.83;;;5.80;99.90;;;;;;5090613;28;20016;-72
2021/04/21 02:41:13;;;;;;;56.25;33.83;;;5.80;99.90;;;;;;5090379;28;20048;-72
2021/04/21 02:44:02;;;;;;;57.50;34.05;;;5.80;99.90;;;;;;5089684;28;20039;-72
2021/04/21 02:46:41;;;;;;;53.08;32.80;;;5.80;99.90;;;;;;5090530;28;20027;-72
2021/04/21 02:49:47;;;;;;;62.22;36.20;;;5.80;99.90;;;;;;5090942;28;20032;-72
2021/04/21 02:52:40;;;;;;;51.08;33.35;;;5.70;99.90;;;;;;5090199;28;20048;-72
2021/04/21 02:55:45;;;;;;;60.22;35.35;;;5.70;99.90;;;;;;5090085;28;20032;-72
2021/04/21 02:58:18;;;;;;;61.85;34.63;;;5.60;99.90;;;;;;5090501;28;20380;-72
2021/04/21 03:00:51;;;;;;;55.58;33.47;;;5.60;99.90;;;;;;5090470;28;20103;-72
2021/04/21 03:03:41;;;;;;;54.05;33.92;;;5.50;99.90;;;;;;5090694;28;20024;-72
2021/04/21 03:06:11;;;;;;;59.80;34.45;;;5.40;99.90;;;;;;5090077;28;20025;-72
2021/04/21 03:08:44;;;;;;;58.05;34.55;;;5.50;99.90;;;;;;5090268;28;20024;-72
2021/04/21 03:11:19;;;;;;;67.05;35.80;;;5.40;99.90;;;;;;5089132;28;20115;-72
2021/04/21 03:14:16;;;;;;;61.35;35.03;;;5.40;99.90;;;;;;5089833;28;20045;-72
2021/04/21 03:16:45;;;;;;;61.08;36.20;;;5.30;99.90;;;;;;5088566;28;20020;-72
2021/04/21 03:19:14;;;;;;;58.20;36.38;;;5.30;99.90;;;;;;5089840;28;20017;-72
2021/04/21 03:21:44;;;;;;;62.58;36.85;;;5.30;99.90;;;;;;5089799;28;20354;-72
2021/04/21 03:24:16;;;;;;;62.90;36.78;;;5.30;99.90;;;;;;5090070;28;20024;-71
2021/04/21 03:26:50;;;;;;;60.67;37.85;;;5.30;99.90;;;;;;5075673;28;20029;-72
2021/04/21 03:29:21;;;;;;;66.10;36.80;;;5.20;99.90;;;;;;5076721;28;20477;-72
2021/04/21 03:31:48;;;;;;;57.65;35.40;;;5.20;99.90;;;;;;5076648;28;20064;-72
2021/04/21 03:34:16;;;;;;;59.10;36.47;;;5.10;99.90;;;;;;5076356;28;20048;-72
2021/04/21 03:36:43;;;;;;;65.80;37.70;;;5.10;99.90;;;;;;5076388;28;20026;-72
2021/04/21 03:39:10;;;;;;;71.93;40.70;;;5.10;99.90;;;;;;5075997;28;20016;-72
2021/04/21 03:41:36;;;;;;;70.25;40.25;;;5.30;99.90;;;;;;5076494;28;20020;-72
2021/04/21 03:44:03;;;;;;;67.45;38.83;;;5.30;99.90;;;;;;5076435;28;20391;-72
2021/04/21 03:46:29;;;;;;;60.40;36.72;;;5.30;99.90;;;;;;5076143;28;20359;-72
2021/04/21 03:48:56;;;;;;;61.33;36.35;;;5.30;99.90;;;;;;5076064;28;20462;-72
2021/04/21 03:51:23;;;;;;;63.75;36.80;;;5.20;99.90;;;;;;5076015;28;20020;-72
2021/04/21 03:53:51;;;;;;;65.75;36.95;;;5.20;99.90;;;;;;5075654;28;20473;-72
2021/04/21 03:56:18;;;;;;;64.28;37.08;;;5.20;99.90;;;;;;5075253;28;20074;-72
2021/04/21 03:58:47;;;;;;;62.42;37.35;;;5.10;99.90;;;;;;5075912;28;20419;-72
2021/04/21 04:01:15;;;;;;;63.38;37.42;;;5.00;99.90;;;;;;5075177;28;20355;-72
2021/04/21 04:03:46;;;;;;;70.07;37.58;;;5.00;99.90;;;;;;5075860;28;20024;-72
2021/04/21 04:06:16;;;;;;;71.32;38.95;;;5.00;99.90;;;;;;5075800;28;20028;-72
2021/04/21 04:11:25;;;;;;;65.97;37.65;;;5.00;99.90;;;;;;5112148;27;20351;-71
2021/04/21 04:13:56;;;;;;;66.65;39.40;;;5.00;99.90;;;;;;5110666;28;20380;-71
2021/04/21 04:16:23;;;;;;;64.57;37.67;;;5.00;99.90;;;;;;5110181;28;20035;-71
2021/04/21 04:18:51;;;;;;;65.25;36.72;;;4.90;99.90;;;;;;5111585;28;20020;-71
2021/04/21 04:21:18;;;;;;;60.13;37.40;;;4.90;99.90;;;;;;5111815;28;20047;-71
2021/04/21 04:23:45;;;;;;;58.97;37.03;;;5.00;99.90;;;;;;5111406;28;20028;-71
2021/04/21 04:26:13;;;;;;;79.72;40.97;;;5.00;99.90;;;;;;5111151;28;20056;-71
2021/04/21 04:28:39;;;;;;;70.22;41.45;;;5.00;99.90;;;;;;5111345;28;20028;-72
2021/04/21 04:31:07;;;;;;;65.40;37.90;;;4.90;99.90;;;;;;5110519;28;20404;-71
2021/04/21 04:33:34;;;;;;;66.72;38.95;;;5.00;99.90;;;;;;5111489;28;20016;-71
2021/04/21 04:36:00;;;;;;;79.03;41.78;;;5.00;99.90;;;;;;5110953;28;20372;-72
2021/04/21 04:38:26;;;;;;;70.15;39.95;;;5.00;99.90;;;;;;5110268;28;20016;-71
2021/04/21 04:40:53;;;;;;;65.93;38.95;;;5.10;99.90;;;;;;5110793;28;20016;-71
2021/04/21 04:43:21;;;;;;;73.75;41.83;;;5.10;99.90;;;;;;5109536;28;20031;-72
2021/04/21 04:45:54;;;;;;;71.00;41.17;;;5.20;99.90;;;;;;5111357;28;20016;-71
2021/04/21 04:48:22;;;;;;;;;;;5.30;99.90;;;;;;5110324;28;20054;-71
2021/04/21 04:50:50;;;;;;;66.00;37.70;;;5.40;99.90;;;;;;5110840;28;20344;-71
2021/04/21 04:53:16;;;;;;;67.38;38.60;;;5.60;99.90;;;;;;5110593;28;20028;-72
2021/04/21 04:55:43;;;;;;;64.47;39.20;;;5.80;99.90;;;;;;5111103;28;20016;-72
2021/04/21 04:58:11;;;;;;;66.40;39.15;;;5.90;99.90;;;;;;5111048;28;20119;-71
2021/04/21 05:00:38;;;;;;;61.58;36.97;;;6.00;99.90;;;;;;5111017;28;20115;-72
2021/04/21 05:03:21;;;;;;;61.90;36.28;;;6.30;99.90;;;;;;5110716;28;20020;-72
2021/04/21 05:05:54;;;;;;;61.42;36.83;;;6.50;99.90;;;;;;5110976;28;20024;-72
2021/04/21 05:08:27;;;;;;;62.10;37.22;;;6.50;99.90;;;;;;5110375;28;20028;-72
2021/04/21 05:11:00;;;;;;;55.08;34.50;;;6.70;99.90;;;;;;5108928;28;20039;-73
2021/04/21 05:13:32;;;;;;;60.38;34.97;;;6.90;99.90;;;;;;5110544;28;20024;-72
2021/04/21 05:16:13;;;;;;;52.42;32.78;;;6.90;99.90;;;;;;5110197;28;20164;-72
2021/04/21 05:19:19;;;;;;;55.92;33.35;;;7.10;99.90;;;;;;5110418;28;20023;-72
2021/04/21 05:22:14;;;;;;;48.80;32.70;;;7.30;99.90;;;;;;5101730;28;20376;-72
2021/04/21 05:25:19;;;;;;;48.72;32.20;;;7.70;99.90;;;;;;5096459;28;20024;-72
2021/04/21 05:28:24;;;;;;;54.65;32.80;;;8.00;99.90;;;;;;5095584;28;20518;-72
2021/04/21 05:34:08;;;;;;;42.03;29.73;;;8.20;99.90;;;;;;5112128;27;20416;-72
2021/04/21 05:42:46;;;;;;;45.13;27.33;;;8.70;99.90;;;;;;5112165;27;20284;-72
2021/04/21 05:45:35;;;;;;;39.47;26.63;;;10.70;99.90;;;;;;5139048;27;20377;-73
2021/04/21 05:48:40;;;;;;;41.47;27.05;;;10.40;99.90;;;;;;5111157;28;20055;-73
2021/04/21 05:51:46;;;;;;;38.75;24.33;;;10.70;99.90;;;;;;5111289;27;20027;-72
2021/04/21 05:54:51;;;;;;;37.45;24.70;;;12.00;99.90;;;;;;5111123;27;20077;-72
2021/04/21 05:57:56;;;;;;;46.10;23.10;;;12.80;99.90;;;;;;5111081;27;20201;-72
2021/04/21 06:01:02;;;;;;;25.38;19.15;;;13.30;99.90;;;;;;5110940;27;20036;-73
2021/04/21 06:03:31;;;;;;;25.17;18.48;;;12.70;99.90;;;;;;5110832;27;20106;-72
2021/04/21 06:06:05;;;;;;;22.58;16.73;;;12.60;99.90;;;;;;5111222;28;20020;-72
2021/04/21 06:08:31;;;;;;;;;;;12.30;99.90;;;;;;5111884;28;20085;-72
2021/04/21 06:10:58;;;;;;;24.08;17.58;;;12.30;99.90;;;;;;5110813;28;19947;-72
2021/04/21 06:13:32;;;;;;;26.52;17.40;;;12.30;99.90;;;;;;5111308;28;20073;-72
2021/04/21 06:15:58;;;;;;;28.42;18.42;;;12.30;99.90;;;;;;5111219;28;20032;-73
2021/04/21 06:18:24;;;;;;;25.35;17.48;;;12.50;99.90;;;;;;5111183;28;20160;-73
2021/04/21 06:20:51;;;;;;;26.10;17.23;;;12.90;99.90;;;;;;5110422;28;20509;-73
2021/04/21 06:23:19;;;;;;;22.65;17.50;;;13.40;99.90;;;;;;5109998;28;20077;-74
2021/04/21 06:25:48;;;;;;;22.77;17.25;;;14.10;99.90;;;;;;5110745;28;20512;-73
2021/04/21 06:28:18;;;;;;;29.35;17.23;;;14.90;99.90;;;;;;5110810;28;20028;-73
2021/04/21 06:30:47;;;;;;;20.05;16.10;;;14.80;99.90;;;;;;5110994;28;20022;-74
2021/04/21 06:33:13;;;;;;;23.55;16.08;;;14.80;99.90;;;;;;5108948;28;20028;-74
2021/04/21 06:35:40;;;;;;;37.50;17.83;;;14.20;99.90;;;;;;5109453;28;20024;-73
2021/04/21 06:38:07;;;;;;;32.60;18.42;;;13.80;99.90;;;;;;5109825;28;20461;-73
2021/04/21 06:40:35;;;;;;;28.88;16.90;;;13.60;99.90;;;;;;5101306;28;20050;-73
2021/04/21 06:43:01;;;;;;;27.25;17.13;;;14.70;99.90;;;;;;5107715;28;20055;-74
2021/04/21 06:45:30;;;;;;;20.55;15.23;;;14.80;99.90;;;;;;5108019;28;20052;-74
2021/04/21 06:47:57;;;;;;;22.92;16.50;;;15.00;99.90;;;;;;5108351;28;20026;-74
2021/04/21 06:50:29;;;;;;;20.13;15.35;;;15.30;99.90;;;;;;5109221;28;20032;-74
2021/04/21 06:53:01;;;;;;;24.52;15.55;;;15.40;99.90;;;;;;5098150;28;20384;-74
2021/04/21 06:55:27;;;;;;;23.92;16.15;;;15.40;99.90;;;;;;5093591;28;20032;-74
2021/04/21 06:57:53;;;;;;;22.27;15.90;;;15.70;99.90;;;;;;5093880;28;20038;-72
2021/04/21 07:00:22;;;;;;;21.35;15.05;;;15.80;99.90;;;;;;5094645;28;20099;-71
2021/04/21 07:02:51;;;;;;;22.83;13.77;;;17.20;99.90;;;;;;5095305;28;20480;-72
2021/04/21 07:05:38;;;;;;;20.48;15.35;;;17.60;98.20;;;;;;5094248;28;20024;-71
2021/04/21 07:08:11;;;;;;;21.10;13.93;;;17.60;97.50;;;;;;5094475;28;20024;-72
2021/04/21 07:10:41;;;;;;;19.98;13.10;;;17.20;97.20;;;;;;5093664;28;20020;-72
2021/04/21 07:13:11;;;;;;;16.13;12.63;;;18.50;92.50;;;;;;5103240;28;20055;-72
2021/04/21 07:15:38;;;;;;;18.83;12.73;;;19.30;86.80;;;;;;5108618;28;20140;-71
2021/04/21 07:18:04;;;;;;;17.33;12.75;;;19.40;79.10;;;;;;5109826;28;20024;-71
2021/04/21 07:20:30;;;;;;;17.58;12.95;;;19.60;77.40;;;;;;5114683;28;20139;-71
2021/04/21 07:22:57;;;;;;;20.77;12.50;;;19.20;78.80;;;;;;5101263;28;20528;-71
2021/04/21 07:25:23;;;;;;;15.32;12.32;;;18.20;82.20;;;;;;5094431;28;20020;-70
2021/04/21 07:27:53;;;;;;;16.70;12.73;;;18.80;82.70;;;;;;5095195;28;20453;-70
2021/04/21 07:30:28;;;;;;;14.93;10.05;;;19.10;73.80;;;;;;5095219;28;20495;-70
2021/04/21 07:32:54;;;;;;;16.92;10.98;;;19.50;64.00;;;;;;5095510;28;20020;-69
2021/04/21 07:35:23;;;;;;;11.95;10.38;;;20.60;57.30;;;;;;5093707;28;20118;-69
2021/04/21 07:37:50;;;;;;;14.75;10.48;;;20.30;55.50;;;;;;5094633;28;20020;-70
2021/04/21 07:40:41;;;;;;;15.00;11.57;;;19.70;55.70;;;;;;5092583;28;20048;-70
2021/04/21 07:43:16;;;;;;;14.77;11.30;;;19.80;58.50;;;;;;5094005;28;20417;-71
2021/04/21 07:45:59;;;;;;;16.10;11.20;;;19.50;56.80;;;;;;5092489;28;20438;-73
2021/04/21 07:48:41;;;;;;;14.33;10.97;;;19.80;56.20;;;;;;5093492;28;20020;-72
2021/04/21 07:54:04;;;;;;;14.65;10.77;;;19.70;53.60;;;;;;5090491;28;20934;-70
2021/04/21 07:56:34;;;;;;;14.18;10.73;;;19.60;54.70;;;;;;5090985;28;20021;-70
2021/04/21 07:59:34;;;;;;;15.40;10.55;;;19.70;56.00;;;;;;5090385;28;20020;-70
2021/04/21 08:02:08;;;;;;;14.48;10.52;;;19.70;53.00;;;;;;5088949;28;20020;-69
2021/04/21 08:04:43;;;;;;;17.02;10.88;;;19.60;55.30;;;;;;5090671;28;20099;-69
2021/04/21 08:07:09;;;;;;;15.73;11.30;;;20.40;53.50;;;;;;5089721;28;20346;-69
2021/04/21 08:09:35;;;;;;;14.82;12.00;;;20.70;51.10;;;;;;5088988;28;20036;-69
2021/04/21 08:12:16;;;;;;;17.25;12.07;;;20.60;52.60;;;;;;5089373;28;20107;-70
2021/04/21 08:14:48;;;;;;;17.25;11.88;;;20.20;54.50;;;;;;5090808;28;20020;-71
2021/04/21 08:17:15;;;;;;;15.70;11.43;;;20.30;52.60;;;;;;5068639;28;20052;-70
2021/04/21 08:19:44;;;;;;;14.32;10.23;;;20.30;54.00;;;;;;5080309;28;20466;-69
2021/04/21 08:22:10;;;;;;;15.95;10.18;;;20.70;50.70;;;;;;5089765;28;20062;-70
2021/04/21 08:24:41;;;;;;;15.00;10.63;;;20.90;48.90;;;;;;5089942;28;20043;-71
2021/04/21 08:27:08;;;;;;;16.00;10.00;;;22.10;48.80;;;;;;5089451;28;20080;-71
2021/04/21 08:29:34;;;;;;;13.27;9.40;;;22.30;48.80;;;;;;5089192;28;20023;-69
2021/04/21 08:32:00;;;;;;;11.88;8.40;;;22.40;46.60;;;;;;5088214;28;20481;-69
2021/04/21 08:34:26;;;;;;;13.23;8.50;;;22.30;47.00;;;;;;5090032;28;20028;-69
2021/04/21 08:36:51;;;;;;;15.75;8.73;;;22.20;46.10;;;;;;5088394;28;20017;-69
2021/04/21 08:39:17;;;;;;;10.30;8.68;;;22.40;46.00;;;;;;5088225;28;20042;-70
2021/04/21 08:41:44;;;;;;;9.93;7.97;;;22.50;44.00;;;;;;5087847;28;20110;-67
2021/04/21 08:44:10;;;;;;;13.15;8.52;;;22.20;44.40;;;;;;5089280;28;20025;-68
2021/04/21 08:46:37;;;;;;;10.05;8.25;;;23.30;43.80;;;;;;5089764;28;20027;-67
2021/04/21 08:49:05;;;;;;;9.45;7.90;;;23.20;42.50;;;;;;5087450;28;20020;-67
2021/04/21 08:51:31;;;;;;;12.60;7.90;;;23.00;43.10;;;;;;5089472;28;20516;-67
2021/04/21 08:54:03;;;;;;;9.68;7.30;;;22.10;42.20;;;;;;5087668;28;20048;-67
2021/04/21 08:56:32;;;;;;;9.33;7.57;;;22.50;42.40;;;;;;5089505;28;20501;-68
2021/04/21 08:58:58;;;;;;;8.65;6.78;;;23.00;40.70;;;;;;5088917;28;20297;-67
2021/04/21 09:01:24;;;;;;;9.43;7.38;;;23.30;41.00;;;;;;5089101;28;20067;-67
2021/04/21 09:03:50;;;;;;;8.73;6.97;;;23.70;40.20;;;;;;5083170;28;20409;-67
2021/04/21 09:06:18;;;;;;;12.95;7.30;;;23.00;39.00;;;;;;5076043;28;20474;-68
2021/04/21 09:08:47;;;;;;;11.85;7.32;;;21.80;38.50;;;;;;5074202;28;20082;-68
2021/04/21 09:11:13;;;;;;;9.98;6.78;;;21.30;39.60;;;;;;5074676;28;20029;-68
2021/04/21 09:13:39;;;;;;;13.60;7.90;;;19.60;42.10;;;;;;5074852;28;20082;-68
2021/04/21 09:16:06;;;;;;;11.80;7.53;;;20.20;43.30;;;;;;5056716;28;20440;-74
2021/04/21 09:18:34;;;;;;;14.18;8.00;;;19.80;43.20;;;;;;5073603;28;20342;-71
2021/04/21 09:21:02;;;;;;;9.18;7.78;;;19.50;45.00;;;;;;5073191;28;20017;-70
2021/04/21 09:23:41;;;;;;;12.90;8.73;;;19.60;44.70;;;;;;5074073;28;20048;-71
2021/04/21 09:26:24;;;;;;;14.30;8.55;;;19.70;46.90;;;;;;5055321;28;20025;-72
2021/04/21 09:28:53;;;;;;;13.75;8.00;;;20.10;47.10;;;;;;5057689;28;20021;-71
2021/04/21 09:31:22;;;;;;;11.40;7.15;;;19.70;45.40;;;;;;5074774;28;20029;-70
2021/04/21 09:33:53;;;;;;;9.77;7.78;;;19.20;45.70;;;;;;5074629;28;20016;-70
2021/04/21 09:36:38;;;;;;;11.90;7.57;;;18.90;45.30;;;;;;5070381;28;20359;-69
2021/04/21 09:39:08;;;;;;;11.07;7.65;;;17.60;47.40;;;;;;5074582;28;20036;-70
2021/04/21 09:41:34;;;;;;;12.30;8.52;;;18.00;50.10;;;;;;5075166;28;20355;-69
2021/04/21 09:44:22;;;;;;;9.75;7.63;;;19.10;49.30;;;;;;5074546;28;20489;-70
2021/04/21 09:46:49;;;;;;;11.77;8.23;;;20.20;47.40;;;;;;5074843;28;20517;-70
2021/04/21 09:49:33;;;;;;;10.70;8.10;;;19.80;44.20;;;;;;5075016;28;20020;-71
2021/04/21 09:52:21;;;;;;;9.48;7.32;;;20.70;42.50;;;;;;5074588;28;20123;-71
2021/04/21 09:54:47;;;;;;;10.75;7.63;;;21.20;44.20;;;;;;5074366;28;20020;-70
2021/04/21 09:57:15;;;;;;;10.30;6.80;;;22.00;41.70;;;;;;5074462;28;20046;-71
2021/04/21 09:59:52;;;;;;;11.52;7.45;;;20.60;40.00;;;;;;5074319;28;20031;-72
2021/04/21 10:02:38;;;;;;;16.23;7.32;;;20.00;41.80;;;;;;5074055;28;20032;-72
2021/04/21 10:05:28;;;;;;;10.95;7.45;;;19.60;44.30;;;;;;5074517;28;20020;-71
2021/04/21 10:08:16;;;;;;;10.68;7.63;;;19.00;45.30;;;;;;5054443;28;20033;-72
2021/04/21 10:10:47;;;;;;;13.85;7.90;;;20.10;44.10;;;;;;5059898;28;20025;-71
2021/04/21 10:13:16;;;;;;;13.75;8.63;;;18.90;44.70;;;;;;5074039;28;20029;-71
2021/04/21 10:15:42;;;;;;;13.57;8.63;;;19.50;45.10;;;;;;5072050;28;20020;-70
2021/04/21 10:18:09;;;;;;;12.70;8.43;;;21.00;46.50;;;;;;5074414;28;20473;-70
2021/04/21 10:20:35;;;;;;;13.98;8.52;;;21.80;44.30;;;;;;5073571;28;20025;-70
2021/04/21 10:23:01;;;;;;;11.68;8.90;;;21.60;44.00;;;;;;5073212;28;20025;-71
2021/04/21 10:25:27;;;;;;;11.27;8.07;;;21.70;43.20;;;;;;5073766;28;20135;-71
2021/04/21 10:27:53;;;;;;;11.90;8.65;;;21.20;43.40;;;;;;5072668;28;20520;-72
2021/04/21 10:30:19;;;;;;;12.50;8.63;;;20.10;43.80;;;;;;5074001;28;20490;-70
2021/04/21 10:32:45;;;;;;;14.95;8.75;;;21.50;43.90;;;;;;5073680;28;20032;-70
2021/04/21 10:35:11;;;;;;;12.55;8.80;;;21.60;43.60;;;;;;5073186;28;20051;-70
2021/04/21 10:37:39;;;;;;;10.32;7.93;;;22.80;42.10;;;;;;5073930;28;20478;-70
2021/04/21 10:40:06;;;;;;;13.88;8.20;;;23.50;40.30;;;;;;5072162;28;20020;-71
2021/04/21 10:42:50;;;;;;;11.73;8.13;;;23.30;39.20;;;;;;5072178;28;20140;-71
2021/04/21 10:45:18;;;;;;;12.88;8.38;;;22.60;39.00;;;;;;5069613;28;20025;-70
2021/04/21 10:47:47;;;;;;;11.02;8.60;;;21.70;41.80;;;;;;5073082;28;20030;-70
2021/04/21 10:50:14;;;;;;;12.13;8.93;;;20.50;41.50;;;;;;5072763;28;20442;-70
2021/04/21 10:52:42;;;;;;;12.25;8.63;;;21.10;43.30;;;;;;5071850;28;20049;-71
2021/04/21 10:58:03;;;;;;;11.95;9.43;;;21.60;42.50;;;;;;5109016;27;20439;-68
2021/04/21 11:00:31;;;;;;;13.10;8.82;;;20.90;39.80;;;;;;5092576;28;20107;-72
2021/04/21 11:02:59;;;;;;;11.98;8.43;;;21.10;41.60;;;;;;5096282;28;20032;-71
2021/04/21 11:05:41;;;;;;;12.43;8.50;;;21.40;41.40;;;;;;5089202;28;20048;-71
2021/04/21 11:08:21;;;;;;;15.82;9.88;;;21.50;41.20;;;;;;5089634;28;20095;-69
2021/04/21 11:11:02;;;;;;;15.75;8.85;;;20.30;42.40;;;;;;5090349;28;20024;-70
2021/04/21 11:13:39;;;;;;;12.80;10.90;;;19.90;42.80;;;;;;5089752;28;20073;-70
2021/04/21 11:18:44;;;;;;;12.18;9.55;;;20.60;43.20;;;;;;5110792;27;20412;-68
2021/04/21 11:21:12;;;;;;;16.25;9.48;;;20.20;43.00;;;;;;5103988;28;20378;-69
2021/04/21 11:26:42;;;;;;;14.00;9.13;;;20.80;41.20;;;;;;5113884;27;20411;-74
2021/04/21 11:29:30;;;;;;;11.50;8.73;;;20.70;43.10;;;;;;5110529;28;20048;-73
2021/04/21 11:34:34;;;;;;;12.27;9.68;;;20.90;42.70;;;;;;5109933;27;20493;-71
2021/04/21 11:39:58;;;;;;;12.50;9.65;;;20.70;43.60;;;;;;5110304;27;20343;-71
2021/04/21 11:42:37;;;;;;;15.55;9.98;;;20.50;43.70;;;;;;5110918;28;20028;-71
2021/04/21 11:50:45;;;;;;;14.75;11.13;;;18.90;45.50;;;;;;5110983;27;20404;-71
2021/04/21 11:53:14;;;;;;;13.48;10.73;;;18.40;46.60;;;;;;5110350;28;20024;-72
2021/04/21 11:55:59;;;;;;;16.40;11.23;;;18.60;47.10;;;;;;5107414;28;20049;-71
2021/04/21 11:58:29;;;;;;;17.95;10.77;;;18.50;47.50;;;;;;5110021;28;20020;-71
2021/04/21 12:00:58;;;;;;;15.70;10.93;;;18.60;49.20;;;;;;5110720;28;20020;-71
2021/04/21 12:03:27;;;;;;;12.70;10.13;;;18.90;48.10;;;;;;5109055;28;20073;-71
2021/04/21 12:05:56;;;;;;;12.40;9.50;;;19.60;46.50;;;;;;5110554;28;20028;-71
2021/04/21 12:08:25;;;;;;;15.90;10.93;;;20.10;45.90;;;;;;5101083;28;20028;-71
2021/04/21 12:10:51;;;;;;;15.43;10.93;;;20.30;46.10;;;;;;5110122;28;20065;-71
2021/04/21 12:13:21;;;;;;;15.60;11.95;;;19.80;44.00;;;;;;5088789;28;20055;-71
2021/04/21 12:15:50;;;;;;;16.13;11.20;;;19.30;45.40;;;;;;5109243;28;20024;-71
2021/04/21 12:18:31;;;;;;;16.08;12.20;;;19.10;46.60;;;;;;5108938;28;20107;-71
2021/04/21 12:20:56;;;;;;;20.52;12.13;;;19.00;47.20;;;;;;5109527;28;20031;-71
2021/04/21 12:23:27;;;;;;;19.50;12.45;;;19.40;47.80;;;;;;5109012;28;20024;-71
2021/04/21 12:25:52;;;;;;;19.40;13.10;;;19.20;47.40;;;;;;5108759;28;20027;-71
2021/04/21 12:28:18;;;;;;;16.52;12.25;;;19.30;48.40;;;;;;5108762;28;20031;-71
2021/04/21 12:30:52;;;;;;;16.55;13.00;;;20.00;47.30;;;;;;5110682;28;20066;-71
2021/04/21 12:33:19;;;;;;;18.30;12.60;;;20.30;47.60;;;;;;5110088;28;20016;-72
2021/04/21 12:35:45;;;;;;;18.30;13.27;;;20.40;46.70;;;;;;5109151;28;20020;-73
2021/04/21 12:38:11;;;;;;;17.38;14.25;;;20.40;46.30;;;;;;5109466;28;20032;-71
2021/04/21 12:40:36;;;;;;;16.75;13.80;;;20.40;46.80;;;;;;5108687;28;20028;-71
2021/04/21 12:43:17;;;;;;;19.40;13.10;;;19.70;47.80;;;;;;5108684;28;20062;-72
2021/04/21 12:45:44;;;;;;;18.33;12.15;;;19.60;47.70;;;;;;5109523;28;20036;-72
2021/04/21 12:48:27;;;;;;;14.35;10.75;;;19.70;47.80;;;;;;5108633;28;20147;-72
2021/04/21 12:50:55;;;;;;;18.02;12.25;;;20.30;47.20;;;;;;5108155;28;20112;-71
2021/04/21 12:53:23;;;;;;;15.95;12.57;;;20.10;47.40;;;;;;5103896;28;20035;-71
2021/04/21 12:56:03;;;;;;;19.95;14.80;;;19.90;47.50;;;;;;5109406;28;20081;-71
2021/04/21 12:58:35;;;;;;;19.63;12.93;;;20.00;46.80;;;;;;5106967;28;20028;-71
2021/04/21 13:01:23;;;;;;;16.55;12.30;;;20.20;47.50;;;;;;5101791;28;20028;-64
2021/04/21 13:04:04;;;;;;;24.42;13.77;;;20.00;46.50;;;;;;5095744;28;20016;-64
2021/04/21 13:09:17;;;;;;;22.95;16.35;;;19.90;47.40;;;;;;5111021;27;20359;-65
2021/04/21 13:11:45;;;;;;;23.17;16.15;;;18.80;49.50;;;;;;5109918;28;20334;-64
2021/04/21 13:14:11;;;;;;;24.35;18.27;;;18.60;52.80;;;;;;5105353;28;20456;-66
2021/04/21 13:16:40;;;;;;;22.00;17.30;;;18.80;52.00;;;;;;5105752;28;20023;-65
2021/04/21 13:19:25;;;;;;;19.75;16.40;;;18.70;52.10;;;;;;5109482;28;20073;-65
2021/04/21 13:22:00;;;;;;;20.58;15.57;;;18.80;51.00;;;;;;5109609;28;20035;-66
2021/04/21 13:24:26;;;;;;;20.42;15.35;;;18.90;52.00;;;;;;5111054;28;20199;-65
2021/04/21 13:26:54;;;;;;;23.65;15.73;;;18.90;52.10;;;;;;5110308;28;20031;-65
2021/04/21 13:29:36;;;;;;;19.95;14.65;;;19.00;51.70;;;;;;5110392;28;20024;-65
2021/04/21 13:32:06;;;;;;;21.27;15.30;;;19.20;52.80;;;;;;5110517;28;20050;-65
2021/04/21 13:34:33;;;;;;;20.08;15.07;;;18.70;52.20;;;;;;5109173;28;20024;-65
2021/04/21 13:36:59;;;;;;;23.30;15.73;;;18.90;53.10;;;;;;5110618;28;20545;-65
2021/04/21 13:39:24;;;;;;;21.45;15.93;;;18.70;52.00;;;;;;5110139;28;20051;-65
2021/04/21 13:41:50;;;;;;;21.85;16.50;;;18.70;51.30;;;;;;5110213;28;20468;-64
2021/04/21 13:44:16;;;;;;;22.13;16.60;;;18.00;52.00;;;;;;5108753;28;20485;-64
2021/04/21 13:46:41;;;;;;;19.77;16.63;;;18.10;53.40;;;;;;5110396;28;20019;-64
2021/04/21 13:49:07;;;;;;;23.77;15.90;;;18.10;53.40;;;;;;5109931;28;20057;-64
2021/04/21 13:51:32;;;;;;;21.83;16.63;;;18.30;54.20;;;;;;5110373;28;20395;-65